sensor_id;sensor_type;location;lat;lon;timestamp;P1;durP1;ratioP1;P2;durP2;ratioP2
1276;SDS011;631;51.024;13.826;2023-07-22T00:00:47;15.53;;;14.50;;
1276;SDS011;631;51.024;13.826;2023-07-22T00:03:13;15.07;;;14.27;;
1276;SDS011;631;51.024;13.826;2023-07-22T00:05:39;15.23;;;14.13;;
1276;SDS011;631;51.024;13.826;2023-07-22T00:08:05;15.23;;;14.13;;
1276;SDS011;631;51.024;13.826;2023-07-22T00:10:31;14.70;;;13.70;;
1276;SDS011;631;51.024;13.826;2023-07-22T00:12:56;16.20;;;14.80;;
1276;SDS011;631;51.024;13.826;2023-07-22T00:15:22;15.90;;;14.80;;
1276;SDS011;631;51.024;13.826;2023-07-22T00:17:49;14.60;;;13.70;;
1276;SDS011;631;51.024;13.826;2023-07-22T00:20:15;15.60;;;14.60;;
1276;SDS011;631;51.024;13.826;2023-07-22T00:22:41;15.10;;;14.10;;
1276;SDS011;631;51.024;13.826;2023-07-22T00:25:08;15.37;;;14.43;;
1276;SDS011;631;51.024;13.826;2023-07-22T00:27:38;15.57;;;14.57;;
1276;SDS011;631;51.024;13.826;2023-07-22T00:30:05;15.13;;;14.13;;
1276;SDS011;631;51.024;13.826;2023-07-22T00:32:32;15.80;;;14.70;;
1276;SDS011;631;51.024;13.826;2023-07-22T00:34:58;15.23;;;14.03;;
1276;SDS011;631;51.024;13.826;2023-07-22T00:37:23;14.73;;;13.73;;
1276;SDS011;631;51.024;13.826;2023-07-22T00:39:50;14.93;;;13.93;;
1276;SDS011;631;51.024;13.826;2023-07-22T00:42:16;14.90;;;13.83;;
1276;SDS011;631;51.024;13.826;2023-07-22T00:44:41;15.63;;;14.63;;
1276;SDS011;631;51.024;13.826;2023-07-22T00:47:07;16.07;;;14.97;;
1276;SDS011;631;51.024;13.826;2023-07-22T00:49:33;15.33;;;14.23;;
1276;SDS011;631;51.024;13.826;2023-07-22T00:52:02;15.67;;;14.60;;
1276;SDS011;631;51.024;13.826;2023-07-22T00:54:28;15.17;;;14.20;;
1276;SDS011;631;51.024;13.826;2023-07-22T00:56:54;15.53;;;14.30;;
1276;SDS011;631;51.024;13.826;2023-07-22T00:59:22;15.40;;;14.47;;
1276;SDS011;631;51.024;13.826;2023-07-22T01:01:48;15.47;;;14.37;;
1276;SDS011;631;51.024;13.826;2023-07-22T01:04:13;15.20;;;14.10;;
1276;SDS011;631;51.024;13.826;2023-07-22T01:06:42;14.73;;;13.73;;
1276;SDS011;631;51.024;13.826;2023-07-22T01:09:09;15.27;;;14.10;;
1276;SDS011;631;51.024;13.826;2023-07-22T01:11:34;15.00;;;14.00;;
1276;SDS011;631;51.024;13.826;2023-07-22T01:14:00;14.23;;;13.33;;
1276;SDS011;631;51.024;13.826;2023-07-22T01:16:28;14.57;;;13.57;;
1276;SDS011;631;51.024;13.826;2023-07-22T01:18:55;14.27;;;13.37;;
1276;SDS011;631;51.024;13.826;2023-07-22T01:21:22;15.90;;;14.70;;
1276;SDS011;631;51.024;13.826;2023-07-22T01:23:48;15.17;;;14.07;;
1276;SDS011;631;51.024;13.826;2023-07-22T01:26:15;14.70;;;13.70;;
1276;SDS011;631;51.024;13.826;2023-07-22T01:28:40;15.50;;;14.50;;
1276;SDS011;631;51.024;13.826;2023-07-22T01:31:06;15.63;;;14.47;;
1276;SDS011;631;51.024;13.826;2023-07-22T01:33:32;14.40;;;13.30;;
1276;SDS011;631;51.024;13.826;2023-07-22T01:35:58;15.03;;;14.03;;
1276;SDS011;631;51.024;13.826;2023-07-22T01:38:24;15.20;;;14.20;;
1276;SDS011;631;51.024;13.826;2023-07-22T01:40:49;14.93;;;14.03;;
1276;SDS011;631;51.024;13.826;2023-07-22T01:43:15;14.63;;;13.73;;
1276;SDS011;631;51.024;13.826;2023-07-22T01:45:40;14.57;;;13.70;;
1276;SDS011;631;51.024;13.826;2023-07-22T01:48:07;14.40;;;13.50;;
1276;SDS011;631;51.024;13.826;2023-07-22T01:50:33;14.20;;;13.40;;
1276;SDS011;631;51.024;13.826;2023-07-22T01:52:58;14.73;;;13.70;;
1276;SDS011;631;51.024;13.826;2023-07-22T01:55:24;14.57;;;13.67;;
1276;SDS011;631;51.024;13.826;2023-07-22T01:57:50;14.77;;;13.87;;
1276;SDS011;631;51.024;13.826;2023-07-22T02:00:16;14.40;;;13.37;;
1276;SDS011;631;51.024;13.826;2023-07-22T02:02:42;15.80;;;14.53;;
1276;SDS011;631;51.024;13.826;2023-07-22T02:05:08;14.47;;;13.57;;
1276;SDS011;631;51.024;13.826;2023-07-22T02:07:37;14.83;;;13.93;;
1276;SDS011;631;51.024;13.826;2023-07-22T02:10:03;14.80;;;13.80;;
1276;SDS011;631;51.024;13.826;2023-07-22T02:12:28;15.53;;;14.53;;
1276;SDS011;631;51.024;13.826;2023-07-22T02:14:54;15.40;;;14.03;;
1276;SDS011;631;51.024;13.826;2023-07-22T02:17:20;14.80;;;13.90;;
1276;SDS011;631;51.024;13.826;2023-07-22T02:19:46;14.93;;;13.87;;
1276;SDS011;631;51.024;13.826;2023-07-22T02:22:12;14.63;;;13.73;;
1276;SDS011;631;51.024;13.826;2023-07-22T02:24:38;16.03;;;14.83;;
1276;SDS011;631;51.024;13.826;2023-07-22T02:27:03;15.23;;;14.13;;
1276;SDS011;631;51.024;13.826;2023-07-22T02:29:29;14.63;;;13.63;;
1276;SDS011;631;51.024;13.826;2023-07-22T02:31:58;15.67;;;14.57;;
1276;SDS011;631;51.024;13.826;2023-07-22T02:34:24;15.90;;;14.70;;
1276;SDS011;631;51.024;13.826;2023-07-22T02:36:49;15.43;;;14.23;;
1276;SDS011;631;51.024;13.826;2023-07-22T02:39:15;15.60;;;14.43;;
1276;SDS011;631;51.024;13.826;2023-07-22T02:41:40;15.53;;;14.47;;
1276;SDS011;631;51.024;13.826;2023-07-22T02:44:06;15.70;;;14.50;;
1276;SDS011;631;51.024;13.826;2023-07-22T02:46:32;14.97;;;13.97;;
1276;SDS011;631;51.024;13.826;2023-07-22T02:48:58;15.20;;;14.10;;
1276;SDS011;631;51.024;13.826;2023-07-22T02:51:24;16.70;;;15.40;;
1276;SDS011;631;51.024;13.826;2023-07-22T02:53:49;16.63;;;15.43;;
1276;SDS011;631;51.024;13.826;2023-07-22T02:56:15;16.47;;;15.17;;
1276;SDS011;631;51.024;13.826;2023-07-22T02:58:41;16.40;;;15.30;;
1276;SDS011;631;51.024;13.826;2023-07-22T03:01:07;17.00;;;15.50;;
1276;SDS011;631;51.024;13.826;2023-07-22T03:03:34;16.20;;;15.10;;
1276;SDS011;631;51.024;13.826;2023-07-22T03:06:00;16.33;;;14.97;;
1276;SDS011;631;51.024;13.826;2023-07-22T03:08:27;16.70;;;15.60;;
1276;SDS011;631;51.024;13.826;2023-07-22T03:10:52;16.47;;;15.37;;
1276;SDS011;631;51.024;13.826;2023-07-22T03:13:18;16.83;;;15.63;;
1276;SDS011;631;51.024;13.826;2023-07-22T03:15:44;17.80;;;16.30;;
1276;SDS011;631;51.024;13.826;2023-07-22T03:18:10;19.40;;;17.90;;
1276;SDS011;631;51.024;13.826;2023-07-22T03:20:36;18.67;;;17.17;;
1276;SDS011;631;51.024;13.826;2023-07-22T03:23:03;16.80;;;15.40;;
1276;SDS011;631;51.024;13.826;2023-07-22T03:25:32;17.03;;;15.83;;
1276;SDS011;631;51.024;13.826;2023-07-22T03:28:02;17.70;;;16.50;;
1276;SDS011;631;51.024;13.826;2023-07-22T03:30:29;19.23;;;17.67;;
1276;SDS011;631;51.024;13.826;2023-07-22T03:32:55;17.97;;;16.37;;
1276;SDS011;631;51.024;13.826;2023-07-22T03:35:21;18.23;;;16.73;;
1276;SDS011;631;51.024;13.826;2023-07-22T03:37:46;18.17;;;16.87;;
1276;SDS011;631;51.024;13.826;2023-07-22T03:40:12;17.60;;;16.20;;
1276;SDS011;631;51.024;13.826;2023-07-22T03:42:44;18.00;;;16.70;;
1276;SDS011;631;51.024;13.826;2023-07-22T03:45:09;19.40;;;17.93;;
1276;SDS011;631;51.024;13.826;2023-07-22T03:47:35;19.13;;;17.53;;
1276;SDS011;631;51.024;13.826;2023-07-22T03:50:01;18.13;;;16.73;;
1276;SDS011;631;51.024;13.826;2023-07-22T03:52:27;18.30;;;16.80;;
1276;SDS011;631;51.024;13.826;2023-07-22T03:54:53;19.43;;;17.70;;
1276;SDS011;631;51.024;13.826;2023-07-22T03:57:18;19.20;;;17.70;;
1276;SDS011;631;51.024;13.826;2023-07-22T03:59:44;18.83;;;17.30;;
1276;SDS011;631;51.024;13.826;2023-07-22T04:02:10;19.13;;;17.63;;
1276;SDS011;631;51.024;13.826;2023-07-22T04:04:35;20.50;;;18.60;;
1276;SDS011;631;51.024;13.826;2023-07-22T04:07:01;19.53;;;17.80;;
1276;SDS011;631;51.024;13.826;2023-07-22T04:09:27;17.60;;;16.30;;
1276;SDS011;631;51.024;13.826;2023-07-22T04:11:52;18.07;;;16.77;;
1276;SDS011;631;51.024;13.826;2023-07-22T04:14:18;16.97;;;15.63;;
1276;SDS011;631;51.024;13.826;2023-07-22T04:16:43;18.53;;;16.80;;
1276;SDS011;631;51.024;13.826;2023-07-22T04:19:09;17.07;;;15.77;;
1276;SDS011;631;51.024;13.826;2023-07-22T04:21:34;17.00;;;15.50;;
1276;SDS011;631;51.024;13.826;2023-07-22T04:24:00;17.53;;;16.13;;
1276;SDS011;631;51.024;13.826;2023-07-22T04:26:27;17.83;;;16.33;;
1276;SDS011;631;51.024;13.826;2023-07-22T04:28:52;16.73;;;15.33;;
1276;SDS011;631;51.024;13.826;2023-07-22T04:31:18;18.13;;;16.50;;
1276;SDS011;631;51.024;13.826;2023-07-22T04:33:44;17.73;;;16.33;;
1276;SDS011;631;51.024;13.826;2023-07-22T04:36:10;17.47;;;16.23;;
1276;SDS011;631;51.024;13.826;2023-07-22T04:38:35;17.53;;;16.03;;
1276;SDS011;631;51.024;13.826;2023-07-22T04:41:02;16.97;;;15.57;;
1276;SDS011;631;51.024;13.826;2023-07-22T04:43:28;17.43;;;16.13;;
1276;SDS011;631;51.024;13.826;2023-07-22T04:45:54;17.00;;;15.50;;
1276;SDS011;631;51.024;13.826;2023-07-22T04:48:21;17.43;;;16.13;;
1276;SDS011;631;51.024;13.826;2023-07-22T04:50:49;17.00;;;15.80;;
1276;SDS011;631;51.024;13.826;2023-07-22T04:53:18;17.77;;;16.37;;
1276;SDS011;631;51.024;13.826;2023-07-22T04:55:44;17.90;;;16.50;;
1276;SDS011;631;51.024;13.826;2023-07-22T04:58:10;18.17;;;16.83;;
1276;SDS011;631;51.024;13.826;2023-07-22T05:00:36;17.30;;;15.93;;
1276;SDS011;631;51.024;13.826;2023-07-22T05:03:02;16.97;;;15.77;;
1276;SDS011;631;51.024;13.826;2023-07-22T05:05:28;16.67;;;15.57;;
1276;SDS011;631;51.024;13.826;2023-07-22T05:07:54;16.90;;;15.50;;
1276;SDS011;631;51.024;13.826;2023-07-22T05:10:20;16.73;;;15.43;;
1276;SDS011;631;51.024;13.826;2023-07-22T05:12:45;17.00;;;15.60;;
1276;SDS011;631;51.024;13.826;2023-07-22T05:15:12;17.77;;;16.50;;
1276;SDS011;631;51.024;13.826;2023-07-22T05:17:38;17.60;;;16.40;;
1276;SDS011;631;51.024;13.826;2023-07-22T05:20:04;17.30;;;16.10;;
1276;SDS011;631;51.024;13.826;2023-07-22T05:22:34;19.03;;;17.63;;
1276;SDS011;631;51.024;13.826;2023-07-22T05:25:00;17.97;;;16.60;;
1276;SDS011;631;51.024;13.826;2023-07-22T05:27:26;17.03;;;15.83;;
1276;SDS011;631;51.024;13.826;2023-07-22T05:29:52;17.40;;;16.30;;
1276;SDS011;631;51.024;13.826;2023-07-22T05:32:17;18.43;;;17.03;;
1276;SDS011;631;51.024;13.826;2023-07-22T05:34:43;18.83;;;17.47;;
1276;SDS011;631;51.024;13.826;2023-07-22T05:37:08;18.30;;;16.90;;
1276;SDS011;631;51.024;13.826;2023-07-22T05:39:34;18.03;;;16.77;;
1276;SDS011;631;51.024;13.826;2023-07-22T05:41:59;18.00;;;16.90;;
1276;SDS011;631;51.024;13.826;2023-07-22T05:44:25;17.00;;;15.90;;
1276;SDS011;631;51.024;13.826;2023-07-22T05:46:51;17.47;;;16.20;;
1276;SDS011;631;51.024;13.826;2023-07-22T05:49:16;16.93;;;15.83;;
1276;SDS011;631;51.024;13.826;2023-07-22T05:51:42;17.40;;;16.27;;
1276;SDS011;631;51.024;13.826;2023-07-22T05:54:07;17.47;;;16.37;;
1276;SDS011;631;51.024;13.826;2023-07-22T05:56:33;17.77;;;16.67;;
1276;SDS011;631;51.024;13.826;2023-07-22T05:58:59;16.73;;;15.57;;
1276;SDS011;631;51.024;13.826;2023-07-22T06:01:24;16.77;;;15.67;;
1276;SDS011;631;51.024;13.826;2023-07-22T06:03:50;17.53;;;16.10;;
1276;SDS011;631;51.024;13.826;2023-07-22T06:06:16;17.17;;;16.03;;
1276;SDS011;631;51.024;13.826;2023-07-22T06:08:42;17.53;;;16.20;;
1276;SDS011;631;51.024;13.826;2023-07-22T06:11:07;17.10;;;16.00;;
1276;SDS011;631;51.024;13.826;2023-07-22T06:13:33;16.97;;;15.97;;
1276;SDS011;631;51.024;13.826;2023-07-22T06:15:59;17.33;;;16.23;;
1276;SDS011;631;51.024;13.826;2023-07-22T06:18:24;17.10;;;15.90;;
1276;SDS011;631;51.024;13.826;2023-07-22T06:20:50;17.63;;;16.57;;
1276;SDS011;631;51.024;13.826;2023-07-22T06:23:16;16.30;;;15.30;;
1276;SDS011;631;51.024;13.826;2023-07-22T06:25:41;16.93;;;15.77;;
1276;SDS011;631;51.024;13.826;2023-07-22T06:28:07;16.93;;;15.70;;
1276;SDS011;631;51.024;13.826;2023-07-22T06:30:33;17.43;;;16.10;;
1276;SDS011;631;51.024;13.826;2023-07-22T06:32:58;16.67;;;15.57;;
1276;SDS011;631;51.024;13.826;2023-07-22T06:35:24;16.60;;;15.50;;
1276;SDS011;631;51.024;13.826;2023-07-22T06:37:50;16.40;;;15.30;;
1276;SDS011;631;51.024;13.826;2023-07-22T06:40:15;15.90;;;14.90;;
1276;SDS011;631;51.024;13.826;2023-07-22T06:42:41;15.20;;;14.23;;
1276;SDS011;631;51.024;13.826;2023-07-22T06:45:06;16.80;;;15.50;;
1276;SDS011;631;51.024;13.826;2023-07-22T06:47:32;16.20;;;15.20;;
1276;SDS011;631;51.024;13.826;2023-07-22T06:49:58;16.17;;;15.20;;
1276;SDS011;631;51.024;13.826;2023-07-22T06:52:24;15.33;;;14.33;;
1276;SDS011;631;51.024;13.826;2023-07-22T06:54:49;16.10;;;15.13;;
1276;SDS011;631;51.024;13.826;2023-07-22T06:57:15;16.17;;;14.70;;
1276;SDS011;631;51.024;13.826;2023-07-22T06:59:40;16.90;;;15.60;;
1276;SDS011;631;51.024;13.826;2023-07-22T07:02:06;16.33;;;15.13;;
1276;SDS011;631;51.024;13.826;2023-07-22T07:04:32;16.67;;;15.40;;
1276;SDS011;631;51.024;13.826;2023-07-22T07:06:58;16.93;;;15.73;;
1276;SDS011;631;51.024;13.826;2023-07-22T07:09:24;15.73;;;14.67;;
1276;SDS011;631;51.024;13.826;2023-07-22T07:11:50;15.30;;;14.20;;
1276;SDS011;631;51.024;13.826;2023-07-22T07:14:16;16.00;;;14.80;;
1276;SDS011;631;51.024;13.826;2023-07-22T07:16:43;17.00;;;15.80;;
1276;SDS011;631;51.024;13.826;2023-07-22T07:19:08;15.47;;;14.57;;
1276;SDS011;631;51.024;13.826;2023-07-22T07:21:34;15.37;;;14.37;;
1276;SDS011;631;51.024;13.826;2023-07-22T07:23:59;15.50;;;14.40;;
1276;SDS011;631;51.024;13.826;2023-07-22T07:26:25;16.10;;;15.10;;
1276;SDS011;631;51.024;13.826;2023-07-22T07:28:51;15.70;;;14.70;;
1276;SDS011;631;51.024;13.826;2023-07-22T07:31:17;15.60;;;14.60;;
1276;SDS011;631;51.024;13.826;2023-07-22T07:33:43;15.00;;;14.00;;
1276;SDS011;631;51.024;13.826;2023-07-22T07:36:09;16.17;;;14.87;;
1276;SDS011;631;51.024;13.826;2023-07-22T07:38:34;14.60;;;13.70;;
1276;SDS011;631;51.024;13.826;2023-07-22T07:41:03;15.93;;;14.93;;
1276;SDS011;631;51.024;13.826;2023-07-22T07:43:36;14.87;;;13.90;;
1276;SDS011;631;51.024;13.826;2023-07-22T07:46:21;14.60;;;13.80;;
1276;SDS011;631;51.024;13.826;2023-07-22T07:48:50;15.20;;;14.20;;
1276;SDS011;631;51.024;13.826;2023-07-22T07:51:17;16.10;;;14.63;;
1276;SDS011;631;51.024;13.826;2023-07-22T07:53:44;14.90;;;14.00;;
1276;SDS011;631;51.024;13.826;2023-07-22T07:56:12;15.80;;;14.90;;
1276;SDS011;631;51.024;13.826;2023-07-22T07:58:38;13.80;;;13.00;;
1276;SDS011;631;51.024;13.826;2023-07-22T08:01:04;15.07;;;14.10;;
1276;SDS011;631;51.024;13.826;2023-07-22T08:03:30;14.40;;;13.40;;
1276;SDS011;631;51.024;13.826;2023-07-22T08:05:57;15.20;;;14.20;;
1276;SDS011;631;51.024;13.826;2023-07-22T08:08:22;15.23;;;14.20;;
1276;SDS011;631;51.024;13.826;2023-07-22T08:10:57;14.10;;;13.30;;
1276;SDS011;631;51.024;13.826;2023-07-22T08:13:25;15.30;;;14.40;;
1276;SDS011;631;51.024;13.826;2023-07-22T08:15:52;15.00;;;14.10;;
1276;SDS011;631;51.024;13.826;2023-07-22T08:18:18;15.07;;;14.17;;
1276;SDS011;631;51.024;13.826;2023-07-22T08:20:44;14.67;;;13.57;;
1276;SDS011;631;51.024;13.826;2023-07-22T08:23:12;14.10;;;13.30;;
1276;SDS011;631;51.024;13.826;2023-07-22T08:25:38;14.13;;;13.33;;
1276;SDS011;631;51.024;13.826;2023-07-22T08:28:03;14.67;;;13.87;;
1276;SDS011;631;51.024;13.826;2023-07-22T08:30:29;14.90;;;13.90;;
1276;SDS011;631;51.024;13.826;2023-07-22T08:32:54;13.10;;;12.23;;
1276;SDS011;631;51.024;13.826;2023-07-22T08:35:20;14.13;;;13.33;;
1276;SDS011;631;51.024;13.826;2023-07-22T08:37:47;15.30;;;14.10;;
1276;SDS011;631;51.024;13.826;2023-07-22T08:40:13;13.70;;;12.90;;
1276;SDS011;631;51.024;13.826;2023-07-22T08:42:40;14.63;;;13.73;;
1276;SDS011;631;51.024;13.826;2023-07-22T08:45:06;15.30;;;14.40;;
1276;SDS011;631;51.024;13.826;2023-07-22T08:47:34;15.03;;;14.00;;
1276;SDS011;631;51.024;13.826;2023-07-22T08:50:03;15.00;;;13.90;;
1276;SDS011;631;51.024;13.826;2023-07-22T08:52:31;14.40;;;13.50;;
1276;SDS011;631;51.024;13.826;2023-07-22T08:54:59;14.97;;;14.13;;
1276;SDS011;631;51.024;13.826;2023-07-22T08:57:26;14.37;;;13.47;;
1276;SDS011;631;51.024;13.826;2023-07-22T08:59:54;14.33;;;13.20;;
1276;SDS011;631;51.024;13.826;2023-07-22T09:02:19;14.30;;;13.40;;
1276;SDS011;631;51.024;13.826;2023-07-22T09:04:46;14.67;;;13.77;;
1276;SDS011;631;51.024;13.826;2023-07-22T09:07:12;13.27;;;12.57;;
1276;SDS011;631;51.024;13.826;2023-07-22T09:09:41;14.20;;;13.30;;
1276;SDS011;631;51.024;13.826;2023-07-22T09:12:07;14.00;;;13.20;;
1276;SDS011;631;51.024;13.826;2023-07-22T09:14:33;13.63;;;12.83;;
1276;SDS011;631;51.024;13.826;2023-07-22T09:17:00;13.17;;;12.47;;
1276;SDS011;631;51.024;13.826;2023-07-22T09:19:25;14.40;;;13.50;;
1276;SDS011;631;51.024;13.826;2023-07-22T09:21:51;13.30;;;12.50;;
1276;SDS011;631;51.024;13.826;2023-07-22T09:24:21;14.20;;;13.40;;
1276;SDS011;631;51.024;13.826;2023-07-22T09:26:48;12.07;;;11.47;;
1276;SDS011;631;51.024;13.826;2023-07-22T09:29:14;13.33;;;12.63;;
1276;SDS011;631;51.024;13.826;2023-07-22T09:31:52;13.40;;;12.30;;
1276;SDS011;631;51.024;13.826;2023-07-22T09:34:18;12.37;;;11.77;;
1276;SDS011;631;51.024;13.826;2023-07-22T09:36:57;13.27;;;12.57;;
1276;SDS011;631;51.024;13.826;2023-07-22T09:39:28;13.00;;;12.30;;
1276;SDS011;631;51.024;13.826;2023-07-22T09:41:55;12.70;;;12.00;;
1276;SDS011;631;51.024;13.826;2023-07-22T09:44:21;12.40;;;11.70;;
1276;SDS011;631;51.024;13.826;2023-07-22T09:46:53;11.80;;;11.13;;
1276;SDS011;631;51.024;13.826;2023-07-22T09:49:19;11.07;;;10.47;;
1276;SDS011;631;51.024;13.826;2023-07-22T09:51:45;12.50;;;11.80;;
1276;SDS011;631;51.024;13.826;2023-07-22T09:54:11;12.93;;;12.23;;
1276;SDS011;631;51.024;13.826;2023-07-22T09:56:46;11.97;;;11.27;;
1276;SDS011;631;51.024;13.826;2023-07-22T09:59:13;12.77;;;12.17;;
1276;SDS011;631;51.024;13.826;2023-07-22T10:01:40;12.27;;;11.57;;
1276;SDS011;631;51.024;13.826;2023-07-22T10:04:06;11.80;;;11.00;;
1276;SDS011;631;51.024;13.826;2023-07-22T10:06:32;12.10;;;11.40;;
1276;SDS011;631;51.024;13.826;2023-07-22T10:09:05;12.70;;;12.00;;
1276;SDS011;631;51.024;13.826;2023-07-22T10:11:33;12.13;;;11.40;;
1276;SDS011;631;51.024;13.826;2023-07-22T10:14:03;12.43;;;11.83;;
1276;SDS011;631;51.024;13.826;2023-07-22T10:16:30;11.90;;;11.27;;
1276;SDS011;631;51.024;13.826;2023-07-22T10:18:56;11.60;;;10.83;;
1276;SDS011;631;51.024;13.826;2023-07-22T10:21:23;12.17;;;11.47;;
1276;SDS011;631;51.024;13.826;2023-07-22T10:23:50;10.43;;;9.93;;
1276;SDS011;631;51.024;13.826;2023-07-22T10:26:17;12.07;;;11.47;;
1276;SDS011;631;51.024;13.826;2023-07-22T10:28:45;11.43;;;10.83;;
1276;SDS011;631;51.024;13.826;2023-07-22T10:31:11;10.90;;;10.40;;
1276;SDS011;631;51.024;13.826;2023-07-22T10:33:46;11.80;;;11.20;;
1276;SDS011;631;51.024;13.826;2023-07-22T10:36:15;11.23;;;10.63;;
1276;SDS011;631;51.024;13.826;2023-07-22T10:38:42;11.17;;;10.67;;
1276;SDS011;631;51.024;13.826;2023-07-22T10:41:12;11.87;;;11.07;;
1276;SDS011;631;51.024;13.826;2023-07-22T10:43:39;12.20;;;11.60;;
1276;SDS011;631;51.024;13.826;2023-07-22T10:46:08;12.60;;;11.97;;
1276;SDS011;631;51.024;13.826;2023-07-22T10:48:36;11.57;;;10.70;;
1276;SDS011;631;51.024;13.826;2023-07-22T10:51:07;11.20;;;10.70;;
1276;SDS011;631;51.024;13.826;2023-07-22T10:53:42;11.80;;;11.20;;
1276;SDS011;631;51.024;13.826;2023-07-22T10:56:15;12.10;;;11.50;;
1276;SDS011;631;51.024;13.826;2023-07-22T11:04:08;11.33;;;10.73;;
1276;SDS011;631;51.024;13.826;2023-07-22T11:12:16;11.83;;;11.33;;
1276;SDS011;631;51.024;13.826;2023-07-22T11:14:50;12.23;;;11.63;;
1276;SDS011;631;51.024;13.826;2023-07-22T11:17:16;12.60;;;12.00;;
1276;SDS011;631;51.024;13.826;2023-07-22T11:19:43;12.50;;;11.90;;
1276;SDS011;631;51.024;13.826;2023-07-22T11:22:09;12.10;;;11.50;;
1276;SDS011;631;51.024;13.826;2023-07-22T11:24:35;11.73;;;11.20;;
1276;SDS011;631;51.024;13.826;2023-07-22T11:27:02;12.13;;;11.53;;
1276;SDS011;631;51.024;13.826;2023-07-22T11:29:29;12.37;;;11.77;;
1276;SDS011;631;51.024;13.826;2023-07-22T11:31:56;11.03;;;10.33;;
1276;SDS011;631;51.024;13.826;2023-07-22T11:34:22;12.80;;;12.20;;
1276;SDS011;631;51.024;13.826;2023-07-22T11:36:49;12.77;;;12.07;;
1276;SDS011;631;51.024;13.826;2023-07-22T11:39:17;11.53;;;11.03;;
1276;SDS011;631;51.024;13.826;2023-07-22T11:41:44;12.17;;;11.57;;
1276;SDS011;631;51.024;13.826;2023-07-22T11:44:11;11.93;;;11.33;;
1276;SDS011;631;51.024;13.826;2023-07-22T11:49:52;12.60;;;12.00;;
1276;SDS011;631;51.024;13.826;2023-07-22T11:52:15;11.13;;;10.63;;
1276;SDS011;631;51.024;13.826;2023-07-22T11:54:45;12.50;;;11.90;;
1276;SDS011;631;51.024;13.826;2023-07-22T11:59:44;12.63;;;12.03;;
1276;SDS011;631;51.024;13.826;2023-07-22T12:02:14;12.10;;;11.50;;
1276;SDS011;631;51.024;13.826;2023-07-22T12:04:41;12.20;;;11.60;;
1276;SDS011;631;51.024;13.826;2023-07-22T12:07:20;12.50;;;11.90;;
1276;SDS011;631;51.024;13.826;2023-07-22T12:09:50;12.53;;;11.93;;
1276;SDS011;631;51.024;13.826;2023-07-22T12:12:17;12.17;;;11.60;;
1276;SDS011;631;51.024;13.826;2023-07-22T12:14:42;13.00;;;12.30;;
1276;SDS011;631;51.024;13.826;2023-07-22T12:17:08;13.13;;;12.43;;
1276;SDS011;631;51.024;13.826;2023-07-22T12:19:34;12.27;;;11.67;;
1276;SDS011;631;51.024;13.826;2023-07-22T12:22:00;11.73;;;11.17;;
1276;SDS011;631;51.024;13.826;2023-07-22T12:24:27;12.67;;;11.97;;
1276;SDS011;631;51.024;13.826;2023-07-22T12:26:53;11.80;;;11.30;;
1276;SDS011;631;51.024;13.826;2023-07-22T12:29:18;12.20;;;11.30;;
1276;SDS011;631;51.024;13.826;2023-07-22T12:31:44;11.53;;;11.03;;
1276;SDS011;631;51.024;13.826;2023-07-22T12:34:10;12.80;;;12.10;;
1276;SDS011;631;51.024;13.826;2023-07-22T12:36:35;12.60;;;12.00;;
1276;SDS011;631;51.024;13.826;2023-07-22T12:39:01;12.77;;;12.17;;
1276;SDS011;631;51.024;13.826;2023-07-22T12:41:27;12.27;;;11.70;;
1276;SDS011;631;51.024;13.826;2023-07-22T12:43:53;11.10;;;10.60;;
1276;SDS011;631;51.024;13.826;2023-07-22T12:46:18;12.60;;;12.00;;
1276;SDS011;631;51.024;13.826;2023-07-22T12:48:44;12.73;;;12.13;;
1276;SDS011;631;51.024;13.826;2023-07-22T12:51:10;12.57;;;11.97;;
1276;SDS011;631;51.024;13.826;2023-07-22T12:53:35;11.87;;;11.27;;
1276;SDS011;631;51.024;13.826;2023-07-22T12:56:01;11.47;;;10.97;;
1276;SDS011;631;51.024;13.826;2023-07-22T12:58:28;11.67;;;11.17;;
1276;SDS011;631;51.024;13.826;2023-07-22T13:00:54;12.20;;;11.70;;
1276;SDS011;631;51.024;13.826;2023-07-22T13:03:19;11.43;;;10.93;;
1276;SDS011;631;51.024;13.826;2023-07-22T13:05:45;11.70;;;11.13;;
1276;SDS011;631;51.024;13.826;2023-07-22T13:08:11;12.07;;;11.47;;
1276;SDS011;631;51.024;13.826;2023-07-22T13:10:36;11.50;;;11.00;;
1276;SDS011;631;51.024;13.826;2023-07-22T13:13:08;11.47;;;10.93;;
1276;SDS011;631;51.024;13.826;2023-07-22T13:15:35;12.80;;;12.10;;
1276;SDS011;631;51.024;13.826;2023-07-22T13:18:01;12.33;;;11.73;;
1276;SDS011;631;51.024;13.826;2023-07-22T13:20:27;11.33;;;10.80;;
1276;SDS011;631;51.024;13.826;2023-07-22T13:22:53;12.10;;;11.50;;
1276;SDS011;631;51.024;13.826;2023-07-22T13:25:20;11.90;;;11.30;;
1276;SDS011;631;51.024;13.826;2023-07-22T13:27:45;12.00;;;11.40;;
1276;SDS011;631;51.024;13.826;2023-07-22T13:30:11;12.17;;;11.60;;
1276;SDS011;631;51.024;13.826;2023-07-22T13:32:37;11.03;;;10.53;;
1276;SDS011;631;51.024;13.826;2023-07-22T13:35:02;11.03;;;10.53;;
1276;SDS011;631;51.024;13.826;2023-07-22T13:37:29;11.60;;;11.10;;
1276;SDS011;631;51.024;13.826;2023-07-22T13:39:55;12.73;;;12.13;;
1276;SDS011;631;51.024;13.826;2023-07-22T13:42:22;12.90;;;12.30;;
1276;SDS011;631;51.024;13.826;2023-07-22T13:44:48;12.17;;;11.67;;
1276;SDS011;631;51.024;13.826;2023-07-22T13:47:14;11.53;;;11.03;;
1276;SDS011;631;51.024;13.826;2023-07-22T13:49:40;11.53;;;10.97;;
1276;SDS011;631;51.024;13.826;2023-07-22T13:52:05;11.70;;;11.20;;
1276;SDS011;631;51.024;13.826;2023-07-22T13:54:31;12.20;;;11.60;;
1276;SDS011;631;51.024;13.826;2023-07-22T13:56:57;12.73;;;11.90;;
1276;SDS011;631;51.024;13.826;2023-07-22T13:59:22;11.50;;;11.00;;
1276;SDS011;631;51.024;13.826;2023-07-22T14:01:48;11.50;;;11.00;;
1276;SDS011;631;51.024;13.826;2023-07-22T14:04:13;12.10;;;11.50;;
1276;SDS011;631;51.024;13.826;2023-07-22T14:06:39;11.60;;;11.10;;
1276;SDS011;631;51.024;13.826;2023-07-22T14:09:05;12.43;;;11.93;;
1276;SDS011;631;51.024;13.826;2023-07-22T14:11:30;12.90;;;12.30;;
1276;SDS011;631;51.024;13.826;2023-07-22T14:13:56;12.40;;;11.90;;
1276;SDS011;631;51.024;13.826;2023-07-22T14:16:21;12.90;;;12.30;;
1276;SDS011;631;51.024;13.826;2023-07-22T14:18:47;12.20;;;11.60;;
1276;SDS011;631;51.024;13.826;2023-07-22T14:21:13;12.97;;;12.37;;
1276;SDS011;631;51.024;13.826;2023-07-22T14:23:39;12.60;;;12.00;;
1276;SDS011;631;51.024;13.826;2023-07-22T14:26:04;11.77;;;11.27;;
1276;SDS011;631;51.024;13.826;2023-07-22T14:28:30;12.20;;;11.60;;
1276;SDS011;631;51.024;13.826;2023-07-22T14:30:55;13.07;;;12.47;;
1276;SDS011;631;51.024;13.826;2023-07-22T14:33:21;12.67;;;12.07;;
1276;SDS011;631;51.024;13.826;2023-07-22T14:35:47;12.03;;;11.43;;
1276;SDS011;631;51.024;13.826;2023-07-22T14:38:12;13.20;;;12.50;;
1276;SDS011;631;51.024;13.826;2023-07-22T14:40:38;12.07;;;11.47;;
1276;SDS011;631;51.024;13.826;2023-07-22T14:43:03;13.57;;;12.87;;
1276;SDS011;631;51.024;13.826;2023-07-22T14:45:29;12.50;;;11.90;;
1276;SDS011;631;51.024;13.826;2023-07-22T14:47:55;13.30;;;12.50;;
1276;SDS011;631;51.024;13.826;2023-07-22T14:50:21;13.00;;;12.03;;
1276;SDS011;631;51.024;13.826;2023-07-22T14:52:47;13.07;;;12.47;;
1276;SDS011;631;51.024;13.826;2023-07-22T14:55:12;12.53;;;11.93;;
1276;SDS011;631;51.024;13.826;2023-07-22T14:57:38;13.00;;;12.30;;
1276;SDS011;631;51.024;13.826;2023-07-22T15:00:04;13.23;;;12.53;;